Time;durP1;ratioP1;P1;durP2;ratioP2;P2;SDS_P1;SDS_P2;PMS_P1;PMS_P2;Temp;Humidity;BMP_temperature;BMP_pressure;BME280_temperature;BME280_humidity;BME280_pressure;Samples;Min_cycle;Max_cycle;Signal;HPM_P1;HPM_P2
2022/10/02 04:00:50;;;;;;;10.47;2.30;;;14.20;99.90;;;;;;5827478;23;20521;-62
2022/10/02 04:03:22;;;;;;;5.00;2.20;;;14.20;99.90;;;;;;4976225;28;20497;-63
2022/10/02 04:05:55;;;;;;;7.37;2.60;;;14.20;99.90;;;;;;4976240;28;20447;-63
2022/10/02 04:08:27;;;;;;;5.83;3.00;;;14.20;99.90;;;;;;4976132;28;20446;-63
2022/10/02 04:11:03;;;;;;;5.70;2.40;;;14.30;99.90;;;;;;4976139;28;20537;-63
2022/10/02 04:13:35;;;;;;;9.47;2.77;;;14.20;99.90;;;;;;4976123;28;20438;-63
2022/10/02 04:16:10;;;;;;;7.80;2.43;;;14.30;99.90;;;;;;4976042;28;20534;-63
2022/10/02 04:18:41;;;;;;;7.60;3.50;;;14.30;99.90;;;;;;4975683;28;20454;-63
2022/10/02 04:21:15;;;;;;;7.30;2.50;;;14.30;99.90;;;;;;4975676;28;20816;-63
2022/10/02 04:23:48;;;;;;;4.43;1.93;;;14.30;99.90;;;;;;4975934;28;20467;-63
2022/10/02 04:26:21;;;;;;;5.87;2.50;;;14.40;99.90;;;;;;4975861;28;20447;-63
2022/10/02 04:28:54;;;;;;;7.10;3.20;;;14.30;99.90;;;;;;4975846;28;20443;-63
2022/10/02 04:31:26;;;;;;;7.33;2.43;;;14.30;99.90;;;;;;4975636;28;20479;-62
2022/10/02 04:33:52;;;;;;;10.07;2.60;;;14.30;99.90;;;;;;4975682;28;20439;-62
2022/10/02 04:36:30;;;;;;;5.70;2.30;;;14.30;99.90;;;;;;4975644;28;20481;-62
2022/10/02 04:39:10;;;;;;;6.60;3.20;;;14.30;99.90;;;;;;4975609;28;20499;-62
2022/10/02 04:41:53;;;;;;;8.63;2.23;;;14.30;99.90;;;;;;4975551;28;20475;-63
2022/10/02 04:44:36;;;;;;;6.57;2.23;;;14.30;99.90;;;;;;4975417;28;20463;-62
2022/10/02 04:47:19;;;;;;;5.80;2.70;;;14.30;99.90;;;;;;4975107;28;20497;-63
2022/10/02 04:50:02;;;;;;;6.90;2.83;;;14.30;99.90;;;;;;4975518;28;20439;-63
2022/10/02 04:52:45;;;;;;;6.80;2.40;;;14.30;99.90;;;;;;4975328;28;20485;-62
2022/10/02 04:55:51;;;;;;;8.80;2.63;;;14.30;99.90;;;;;;4975399;28;20497;-64
2022/10/02 04:58:35;;;;;;;6.40;2.63;;;14.30;99.90;;;;;;4975272;28;20435;-63
2022/10/02 05:01:09;;;;;;;13.00;2.73;;;14.20;99.90;;;;;;4975053;28;20506;-62
2022/10/02 05:03:54;;;;;;;5.60;2.00;;;14.20;99.90;;;;;;4974900;28;20442;-62
2022/10/02 05:06:38;;;;;;;7.37;1.87;;;14.20;99.90;;;;;;4975484;28;20447;-63
2022/10/02 05:09:15;;;;;;;2.73;1.50;;;14.30;99.90;;;;;;4975220;28;20462;-63
2022/10/02 05:11:56;;;;;;;9.23;2.87;;;14.30;99.90;;;;;;4975027;28;20474;-62
2022/10/02 05:14:48;;;;;;;7.50;2.90;;;14.30;99.90;;;;;;4975329;28;20435;-63
2022/10/02 05:17:32;;;;;;;4.73;2.00;;;14.30;99.90;;;;;;4975074;28;20447;-63
2022/10/02 05:20:13;;;;;;;8.87;2.40;;;14.30;99.90;;;;;;4974937;28;20843;-62
2022/10/02 05:23:00;;;;;;;9.90;2.93;;;14.30;99.90;;;;;;4975053;28;20876;-62
2022/10/02 05:25:46;;;;;;;4.50;2.47;;;14.30;99.90;;;;;;4974741;28;20513;-63
2022/10/02 05:28:32;;;;;;;9.07;2.80;;;14.30;99.90;;;;;;4974799;28;20497;-63
2022/10/02 05:31:11;;;;;;;6.40;2.20;;;14.30;99.90;;;;;;4974902;28;20474;-63
2022/10/02 05:33:56;;;;;;;6.17;2.40;;;14.30;99.90;;;;;;4974967;28;20443;-63
2022/10/02 05:36:52;;;;;;;7.63;3.77;;;14.30;99.90;;;;;;4975273;28;20439;-62
2022/10/02 05:39:23;;;;;;;9.70;3.07;;;14.30;99.90;;;;;;4975121;28;20438;-62
2022/10/02 05:41:59;;;;;;;6.87;2.83;;;14.30;99.90;;;;;;4975082;28;20525;-62
2022/10/02 05:44:33;;;;;;;8.43;2.40;;;14.30;99.90;;;;;;4975116;28;20473;-62
2022/10/02 05:47:06;;;;;;;9.63;2.70;;;14.30;99.90;;;;;;4975238;28;20529;-63
2022/10/02 05:49:35;;;;;;;4.97;2.23;;;14.30;99.90;;;;;;4975140;28;20489;-64
2022/10/02 05:52:08;;;;;;;7.70;2.70;;;14.30;99.90;;;;;;4974767;28;20565;-62
2022/10/02 05:54:42;;;;;;;11.07;2.80;;;14.30;99.90;;;;;;4974885;28;20490;-62
2022/10/02 05:57:15;;;;;;;9.77;3.10;;;14.30;99.90;;;;;;4974694;28;20448;-62
2022/10/02 05:59:50;;;;;;;8.80;2.60;;;14.30;99.90;;;;;;4975033;28;20449;-62
2022/10/02 06:02:26;;;;;;;6.03;2.83;;;14.30;99.90;;;;;;4974731;28;20533;-62
2022/10/02 06:05:00;;;;;;;8.00;2.90;;;14.30;99.90;;;;;;4974772;28;20462;-61
2022/10/02 06:07:28;;;;;;;11.00;2.93;;;14.30;99.90;;;;;;4974962;28;20443;-61
2022/10/02 06:10:00;;;;;;;10.13;3.00;;;14.30;99.90;;;;;;4974831;28;20868;-62
2022/10/02 06:12:32;;;;;;;10.43;3.10;;;14.30;99.90;;;;;;4974565;28;20471;-62
2022/10/02 06:15:03;;;;;;;9.47;3.50;;;14.30;99.90;;;;;;4976735;28;20438;-62
2022/10/02 06:17:34;;;;;;;10.03;2.67;;;14.30;99.90;;;;;;4978580;28;20443;-62
2022/10/02 06:20:05;;;;;;;7.40;2.60;;;14.40;99.90;;;;;;4978519;28;20442;-62
2022/10/02 06:22:41;;;;;;;6.10;3.07;;;14.40;99.90;;;;;;4978366;28;20553;-62
2022/10/02 06:25:16;;;;;;;8.60;2.97;;;14.30;99.90;;;;;;4978213;28;20513;-62
2022/10/02 06:27:48;;;;;;;8.93;3.53;;;14.40;99.90;;;;;;4978214;28;20443;-62
2022/10/02 06:30:16;;;;;;;11.23;3.80;;;14.30;99.90;;;;;;4977917;28;20443;-62
2022/10/02 06:32:51;;;;;;;12.40;5.03;;;14.30;99.90;;;;;;4977776;28;20518;-62
2022/10/02 06:35:29;;;;;;;9.17;3.37;;;14.30;99.90;;;;;;4977919;28;20474;-62
2022/10/02 06:38:11;;;;;;;9.17;3.40;;;14.30;99.90;;;;;;4977992;28;20447;-62
2022/10/02 06:40:49;;;;;;;9.57;2.90;;;14.30;99.90;;;;;;4977825;28;20474;-62
2022/10/02 06:43:48;;;;;;;10.77;3.47;;;14.20;99.90;;;;;;4977788;28;20529;-62
2022/10/02 06:46:27;;;;;;;7.97;2.60;;;14.20;99.90;;;;;;4977667;28;20486;-62
2022/10/02 06:48:59;;;;;;;12.47;3.43;;;14.20;99.90;;;;;;4977898;28;20449;-62
2022/10/02 06:51:37;;;;;;;7.07;3.13;;;14.20;99.90;;;;;;4977565;28;20533;-62
2022/10/02 06:54:25;;;;;;;9.23;3.40;;;14.30;99.90;;;;;;4977387;28;20918;-62
2022/10/02 06:57:15;;;;;;;6.30;3.33;;;14.30;99.90;;;;;;4977813;28;20439;-62
2022/10/02 07:00:01;;;;;;;8.70;3.10;;;14.30;99.90;;;;;;4977253;28;20447;-62
2022/10/02 07:02:52;;;;;;;8.70;3.40;;;14.30;99.90;;;;;;4977281;28;20537;-62
2022/10/02 07:05:43;;;;;;;11.90;3.63;;;14.30;99.90;;;;;;4977113;28;20462;-62
2022/10/02 07:08:20;;;;;;;12.47;3.93;;;14.20;99.90;;;;;;4977060;28;20788;-63
2022/10/02 07:10:59;;;;;;;9.87;3.90;;;14.20;99.90;;;;;;4977131;28;20996;-64
2022/10/02 07:13:36;;;;;;;10.80;3.77;;;14.20;99.90;;;;;;4977369;28;20478;-65
2022/10/02 07:16:26;;;;;;;11.47;3.90;;;14.20;99.90;;;;;;4977369;28;20443;-64
2022/10/02 07:19:11;;;;;;;8.90;4.33;;;14.20;99.90;;;;;;4977328;28;20443;-64
2022/10/02 07:21:50;;;;;;;12.03;4.07;;;14.20;99.90;;;;;;4977365;28;20537;-64
2022/10/02 07:24:32;;;;;;;10.37;3.50;;;14.20;99.90;;;;;;4977256;28;20443;-64
2022/10/02 07:27:09;;;;;;;15.37;4.60;;;14.30;99.90;;;;;;4976761;28;20442;-64
2022/10/02 07:29:48;;;;;;;7.07;2.93;;;14.30;99.90;;;;;;4976564;28;20438;-64
2022/10/02 07:32:41;;;;;;;9.27;3.50;;;14.30;99.90;;;;;;4976902;28;20485;-64
2022/10/02 07:35:20;;;;;;;7.03;3.57;;;14.20;99.90;;;;;;4976418;28;20486;-64
2022/10/02 07:37:57;;;;;;;11.33;4.00;;;14.20;99.90;;;;;;4976472;28;20435;-64
2022/10/02 07:40:33;;;;;;;9.17;3.90;;;14.20;99.90;;;;;;4976744;28;20494;-64
2022/10/02 07:43:21;;;;;;;9.77;4.10;;;14.20;99.90;;;;;;4976786;28;20438;-65
2022/10/02 07:45:56;;;;;;;13.60;5.13;;;14.20;99.90;;;;;;4976662;28;20525;-64
2022/10/02 07:48:36;;;;;;;6.27;5.03;;;14.10;99.90;;;;;;4976437;28;20909;-65
2022/10/02 07:54:08;;;;;;;9.33;5.57;;;14.10;99.90;;;;;;4975111;28;20973;-64
2022/10/02 07:56:35;;;;;;;12.17;6.20;;;14.10;99.90;;;;;;4976373;28;20443;-65
2022/10/02 07:59:10;;;;;;;7.67;6.70;;;14.10;99.90;;;;;;4976392;28;20501;-64
2022/10/02 08:01:40;;;;;;;9.57;6.47;;;14.10;99.90;;;;;;4975845;28;20478;-65
2022/10/02 08:04:11;;;;;;;6.97;6.03;;;14.10;99.90;;;;;;4976162;28;20451;-64
2022/10/02 08:06:38;;;;;;;6.97;5.60;;;14.10;99.90;;;;;;4975971;28;20965;-63
2022/10/02 08:09:12;;;;;;;7.67;6.13;;;14.10;99.90;;;;;;4976330;28;20466;-63
2022/10/02 08:11:42;;;;;;;7.77;6.97;;;14.10;99.90;;;;;;4975916;28;21000;-63
2022/10/02 08:14:18;;;;;;;9.83;6.53;;;14.10;99.90;;;;;;4976155;28;20438;-63
2022/10/02 08:16:48;;;;;;;7.33;6.63;;;14.20;99.90;;;;;;4976140;28;20439;-63
2022/10/02 08:19:18;;;;;;;6.87;5.80;;;14.20;99.90;;;;;;4976017;28;20443;-63
2022/10/02 08:21:49;;;;;;;9.43;6.27;;;14.30;99.90;;;;;;4975647;28;20986;-64
2022/10/02 08:24:21;;;;;;;6.43;5.83;;;14.30;99.90;;;;;;4975866;28;20501;-63
2022/10/02 08:26:52;;;;;;;10.40;6.40;;;14.30;99.90;;;;;;4976401;28;20473;-63
2022/10/02 08:29:26;;;;;;;6.83;6.23;;;14.30;99.90;;;;;;4975540;28;20439;-63
2022/10/02 08:31:54;;;;;;;7.40;5.50;;;14.40;99.90;;;;;;4975753;28;20482;-63
2022/10/02 08:34:22;;;;;;;6.60;5.10;;;14.50;99.90;;;;;;4975869;28;20455;-63
2022/10/02 08:37:08;;;;;;;7.60;5.27;;;14.50;99.90;;;;;;4974989;28;20459;-63
2022/10/02 08:39:54;;;;;;;7.87;6.00;;;14.60;99.90;;;;;;4975746;28;20450;-64
2022/10/02 08:42:44;;;;;;;5.37;4.53;;;14.60;99.90;;;;;;4975509;28;20525;-64
2022/10/02 08:45:48;;;;;;;8.40;5.00;;;14.60;99.90;;;;;;4975289;28;20511;-63
2022/10/02 08:48:53;;;;;;;6.73;5.23;;;14.50;99.90;;;;;;4963287;28;20458;-63
2022/10/02 08:52:00;;;;;;;6.27;5.13;;;14.40;99.90;;;;;;4975931;28;20482;-64
2022/10/02 08:54:58;;;;;;;6.20;4.60;;;14.40;99.90;;;;;;4966601;28;20545;-64
2022/10/02 08:57:47;;;;;;;7.33;3.93;;;14.40;99.90;;;;;;4975324;28;20439;-64
2022/10/02 09:00:22;;;;;;;7.00;4.00;;;14.50;99.90;;;;;;4974895;28;20526;-64
2022/10/02 09:03:24;;;;;;;4.90;3.40;;;14.60;99.90;;;;;;4975245;28;20449;-64
2022/10/02 09:06:23;;;;;;;3.90;2.50;;;14.80;99.90;;;;;;4975185;28;20469;-64
2022/10/02 09:09:30;;;;;;;2.97;2.33;;;14.90;99.90;;;;;;4965367;28;20509;-64
2022/10/02 09:12:46;;;;;;;2.90;2.27;;;15.00;99.90;;;;;;4975225;28;20887;-64
2022/10/02 09:15:17;;;;;;;4.07;2.33;;;15.10;99.90;;;;;;4934642;29;20432;-64
2022/10/02 09:17:47;;;;;;;3.13;2.33;;;15.20;99.90;;;;;;4972056;28;20518;-64
2022/10/02 09:20:48;;;;;;;2.77;2.33;;;15.20;99.90;;;;;;4975232;28;20458;-64
2022/10/02 09:24:03;;;;;;;2.63;2.37;;;15.20;99.90;;;;;;4975103;28;20514;-64
2022/10/02 09:26:44;;;;;;;7.07;3.57;;;15.10;99.90;;;;;;4974889;28;20486;-64
2022/10/02 09:29:47;;;;;;;4.17;3.77;;;15.10;99.90;;;;;;4975109;28;20439;-64
2022/10/02 09:32:45;;;;;;;4.63;3.97;;;15.10;99.90;;;;;;4975024;28;20474;-64
2022/10/02 09:35:50;;;;;;;4.10;3.67;;;15.10;99.90;;;;;;4975227;28;20835;-64
2022/10/02 09:38:41;;;;;;;5.33;4.07;;;15.10;99.90;;;;;;4975053;28;20438;-64
2022/10/02 09:41:30;;;;;;;5.13;4.00;;;15.00;99.90;;;;;;4974735;28;20929;-64
2022/10/02 09:44:38;;;;;;;5.00;3.43;;;15.10;99.90;;;;;;4974628;28;20961;-64
2022/10/02 09:47:34;;;;;;;7.00;4.90;;;15.20;99.90;;;;;;4933986;29;21065;-64
2022/10/02 09:50:48;;;;;;;4.50;3.87;;;15.10;99.90;;;;;;4976625;28;20962;-64
2022/10/02 09:53:45;;;;;;;6.40;4.47;;;15.00;99.90;;;;;;4948603;28;20977;-64
2022/10/02 09:56:46;;;;;;;5.53;4.60;;;14.90;99.90;;;;;;4976768;28;20509;-64
2022/10/02 09:59:42;;;;;;;6.20;5.27;;;14.80;99.90;;;;;;4978239;28;20450;-64
2022/10/02 10:02:34;;;;;;;5.97;4.23;;;14.80;99.90;;;;;;4978090;28;20489;-64
2022/10/02 10:05:41;;;;;;;4.00;3.70;;;14.80;99.90;;;;;;4978323;28;20442;-64
2022/10/02 10:08:29;;;;;;;4.33;4.03;;;14.70;99.90;;;;;;4978643;28;20438;-65
2022/10/02 10:11:10;;;;;;;8.27;4.90;;;14.70;99.90;;;;;;4976061;28;20482;-64
2022/10/02 10:14:23;;;;;;;6.60;4.30;;;14.70;99.90;;;;;;4978654;28;20438;-65
2022/10/02 10:17:38;;;;;;;5.70;4.07;;;14.70;99.90;;;;;;4978474;28;20494;-64
2022/10/02 10:20:27;;;;;;;4.27;3.90;;;14.80;99.90;;;;;;4938142;29;20456;-65
2022/10/02 10:23:07;;;;;;;4.40;4.10;;;14.90;99.90;;;;;;4975046;28;20455;-64
2022/10/02 10:25:50;;;;;;;3.80;3.57;;;15.00;99.90;;;;;;4978411;28;20462;-64
2022/10/02 10:28:52;;;;;;;4.30;3.97;;;15.10;99.90;;;;;;4978225;28;20442;-64
2022/10/02 10:31:50;;;;;;;2.90;2.80;;;15.30;99.90;;;;;;4978188;28;20536;-64
2022/10/02 10:34:59;;;;;;;2.50;2.13;;;15.40;99.90;;;;;;4978036;28;20505;-64
2022/10/02 10:40:37;;;;;;;1.77;1.67;;;15.50;99.90;;;;;;4977872;28;20505;-64
2022/10/02 10:43:35;;;;;;;1.80;1.70;;;15.50;99.90;;;;;;4978271;28;20446;-64
2022/10/02 10:46:36;;;;;;;2.83;2.20;;;15.40;99.90;;;;;;4978157;28;20828;-65
2022/10/02 10:49:46;;;;;;;2.77;1.87;;;15.40;99.90;;;;;;4956040;28;20454;-64
2022/10/02 10:52:27;;;;;;;2.60;2.50;;;15.30;99.90;;;;;;4978070;28;20506;-65
2022/10/02 10:55:17;;;;;;;2.50;2.30;;;15.40;99.90;;;;;;4977874;28;20435;-65
2022/10/02 10:58:08;;;;;;;2.57;2.37;;;15.40;99.90;;;;;;4978263;28;20521;-65
2022/10/02 11:00:46;;;;;;;3.97;2.10;;;15.40;99.90;;;;;;4977226;28;20478;-64
2022/10/02 11:03:36;;;;;;;1.60;1.50;;;15.40;99.90;;;;;;4978171;28;20434;-64
2022/10/02 11:06:32;;;;;;;2.47;1.70;;;15.40;99.90;;;;;;4977819;28;20462;-64
2022/10/02 11:09:39;;;;;;;1.80;1.70;;;15.40;99.90;;;;;;4978763;28;20812;-64
2022/10/02 11:12:31;;;;;;;3.23;2.23;;;15.30;99.90;;;;;;4973765;28;20486;-65
2022/10/02 11:15:18;;;;;;;2.43;2.33;;;15.20;99.90;;;;;;4977539;28;20486;-66
2022/10/02 11:18:04;;;;;;;3.03;2.83;;;15.10;99.90;;;;;;4977383;28;20505;-64
2022/10/02 11:20:54;;;;;;;2.33;2.23;;;15.10;99.90;;;;;;4977045;28;20923;-64
2022/10/02 11:24:00;;;;;;;2.03;1.90;;;15.00;99.90;;;;;;4977168;28;20450;-64
2022/10/02 11:26:38;;;;;;;2.33;2.13;;;15.00;99.90;;;;;;4977448;28;20486;-64
2022/10/02 11:29:33;;;;;;;2.50;2.40;;;14.90;99.90;;;;;;4976964;28;20840;-64
2022/10/02 11:32:41;;;;;;;2.10;2.00;;;15.00;99.90;;;;;;4977152;28;20485;-64
2022/10/02 11:35:22;;;;;;;1.47;1.37;;;15.00;99.90;;;;;;4977114;28;20485;-64
2022/10/02 11:38:21;;;;;;;1.63;1.53;;;15.10;99.90;;;;;;4977144;28;20489;-64
2022/10/02 11:41:21;;;;;;;1.00;1.00;;;15.10;99.90;;;;;;4976718;28;21053;-64
2022/10/02 11:44:04;;;;;;;1.67;1.43;;;15.20;99.90;;;;;;4976907;28;20431;-64
2022/10/02 11:46:47;;;;;;;1.40;1.30;;;15.10;99.90;;;;;;4976891;28;20559;-64
2022/10/02 11:49:42;;;;;;;1.20;1.20;;;15.20;99.90;;;;;;4976932;28;20479;-64
2022/10/02 11:52:31;;;;;;;1.20;1.20;;;15.20;99.90;;;;;;4977727;28;20478;-65
2022/10/02 11:55:13;;;;;;;1.50;1.40;;;15.20;99.90;;;;;;4976841;28;20462;-64
2022/10/02 11:57:49;;;;;;;2.33;1.60;;;15.20;99.90;;;;;;4976740;28;20438;-63
2022/10/02 12:00:51;;;;;;;1.43;1.40;;;15.20;99.90;;;;;;4976139;28;20922;-64
2022/10/02 12:03:28;;;;;;;1.00;0.97;;;15.30;99.90;;;;;;4976499;28;20814;-63
2022/10/02 12:06:01;;;;;;;1.00;1.00;;;15.20;99.90;;;;;;4976331;28;20498;-63
2022/10/02 12:08:43;;;;;;;1.20;1.20;;;15.20;99.90;;;;;;4975867;28;20439;-63
2022/10/02 12:11:20;;;;;;;1.30;1.30;;;15.20;99.90;;;;;;4975981;28;20510;-63
2022/10/02 12:14:09;;;;;;;1.37;1.30;;;15.20;99.90;;;;;;4976159;28;20442;-63
2022/10/02 12:16:48;;;;;;;1.00;1.00;;;15.20;99.90;;;;;;4976044;28;20443;-63
2022/10/02 12:19:26;;;;;;;1.50;1.40;;;15.20;99.90;;;;;;4976260;28;20443;-63
2022/10/02 12:27:57;;;;;;;0.90;0.90;;;15.20;99.90;;;;;;4975943;28;20509;-63
2022/10/02 12:30:30;;;;;;;2.23;0.87;;;15.30;99.90;;;;;;4975795;28;20453;-63
2022/10/02 12:33:09;;;;;;;1.03;0.80;;;15.20;99.90;;;;;;4975735;28;20450;-63
2022/10/02 12:35:56;;;;;;;1.37;1.00;;;15.20;99.90;;;;;;4975839;28;20454;-63
2022/10/02 12:38:33;;;;;;;1.77;1.67;;;15.10;99.90;;;;;;4975646;28;20447;-63
2022/10/02 12:41:07;;;;;;;0.80;0.80;;;15.10;99.90;;;;;;4975538;28;20562;-63
2022/10/02 12:44:16;;;;;;;1.10;1.10;;;15.10;99.90;;;;;;4975268;28;20925;-63
2022/10/02 12:47:19;;;;;;;1.50;1.40;;;15.10;99.90;;;;;;4973847;28;20471;-63
2022/10/02 12:49:57;;;;;;;1.13;1.13;;;15.20;99.90;;;;;;4955535;28;20462;-63
2022/10/02 12:52:55;;;;;;;1.23;1.13;;;15.20;99.90;;;;;;4975157;28;21036;-63
2022/10/02 12:55:56;;;;;;;1.10;1.10;;;15.20;99.90;;;;;;4975368;28;20443;-64
2022/10/02 12:58:28;;;;;;;1.47;1.37;;;15.20;99.90;;;;;;4975010;28;20946;-64
2022/10/02 13:01:40;;;;;;;1.10;1.10;;;15.20;99.90;;;;;;4975182;28;20497;-63
2022/10/02 13:04:39;;;;;;;1.37;1.37;;;15.30;99.90;;;;;;4934495;29;20459;-63
2022/10/02 13:07:37;;;;;;;1.37;1.37;;;15.30;99.90;;;;;;4960096;28;21021;-64
2022/10/02 13:10:12;;;;;;;1.10;1.10;;;15.30;99.90;;;;;;4975115;28;20446;-64
2022/10/02 13:12:55;;;;;;;1.63;0.83;;;15.40;99.90;;;;;;4975104;28;20493;-63
2022/10/02 13:15:35;;;;;;;1.47;0.90;;;15.30;99.90;;;;;;4975143;28;20439;-64
2022/10/02 13:18:20;;;;;;;2.30;1.67;;;15.30;99.90;;;;;;4975244;28;20525;-63
2022/10/02 13:21:01;;;;;;;1.03;1.03;;;15.10;99.90;;;;;;4974998;28;20506;-64
2022/10/02 13:23:38;;;;;;;1.40;1.33;;;15.10;99.90;;;;;;4974757;28;20446;-63
2022/10/02 13:26:15;;;;;;;1.33;1.33;;;15.00;99.90;;;;;;4974986;28;20941;-63
2022/10/02 13:29:02;;;;;;;2.23;2.03;;;14.90;99.90;;;;;;4975151;28;20489;-63
2022/10/02 13:31:48;;;;;;;2.43;2.33;;;14.90;99.90;;;;;;4975122;28;20541;-63
2022/10/02 13:34:38;;;;;;;1.60;1.50;;;14.90;99.90;;;;;;4975923;28;20439;-63
2022/10/02 13:37:14;;;;;;;1.80;1.33;;;14.90;99.90;;;;;;4975155;28;20446;-63
2022/10/02 13:40:01;;;;;;;1.40;1.30;;;14.90;99.90;;;;;;4975807;28;20529;-63
2022/10/02 13:42:38;;;;;;;1.00;1.00;;;14.90;99.90;;;;;;4974856;28;20485;-63
2022/10/02 13:45:16;;;;;;;1.20;1.20;;;14.90;99.90;;;;;;4975086;28;20449;-64
2022/10/02 13:47:51;;;;;;;4.80;4.40;;;14.90;99.90;;;;;;4975063;28;20466;-63
2022/10/02 13:50:31;;;;;;;24.57;18.47;;;14.90;99.90;;;;;;4974878;28;20438;-63
2022/10/02 13:53:22;;;;;;;15.67;12.37;;;14.80;99.90;;;;;;4974856;28;20447;-64
2022/10/02 13:55:54;;;;;;;3.30;2.93;;;14.80;99.90;;;;;;4966418;28;20481;-63
2022/10/02 13:58:38;;;;;;;4.57;1.97;;;14.80;99.90;;;;;;4974583;28;20431;-63
2022/10/02 14:01:23;;;;;;;1.10;1.10;;;14.80;99.90;;;;;;4974511;28;20505;-63
2022/10/02 14:04:21;;;;;;;1.40;1.30;;;14.70;99.90;;;;;;4974625;28;20493;-64
2022/10/02 14:06:54;;;;;;;1.73;1.73;;;14.70;99.90;;;;;;4974699;28;20473;-63
2022/10/02 14:09:35;;;;;;;1.40;1.40;;;14.70;99.90;;;;;;4974855;28;20537;-63
2022/10/02 14:12:22;;;;;;;1.13;1.13;;;14.70;99.90;;;;;;4974819;28;20474;-63
2022/10/02 14:15:02;;;;;;;0.83;0.83;;;14.70;99.90;;;;;;4974535;28;20833;-63
2022/10/02 14:17:38;;;;;;;1.13;0.90;;;14.70;99.90;;;;;;4974702;28;20498;-63
2022/10/02 14:20:34;;;;;;;0.97;0.97;;;14.50;99.90;;;;;;4974628;28;20849;-63
2022/10/02 14:23:15;;;;;;;0.70;0.70;;;14.50;99.90;;;;;;4974030;28;20579;-63
2022/10/02 14:25:55;;;;;;;1.77;1.70;;;14.60;99.90;;;;;;4975006;28;20439;-63
2022/10/02 14:28:39;;;;;;;1.33;1.23;;;14.60;99.90;;;;;;4974322;28;21032;-64
2022/10/02 14:31:43;;;;;;;1.70;1.30;;;14.60;99.90;;;;;;4974750;28;20471;-64
2022/10/02 14:34:35;;;;;;;1.10;1.10;;;14.70;99.90;;;;;;4972444;28;20465;-64
2022/10/02 14:37:25;;;;;;;1.90;1.10;;;14.70;99.90;;;;;;4977870;28;20443;-64
2022/10/02 14:39:54;;;;;;;1.00;1.00;;;14.70;99.90;;;;;;4977927;28;20839;-64
2022/10/02 14:42:34;;;;;;;1.47;1.37;;;14.80;99.90;;;;;;4977924;28;20470;-63
2022/10/02 14:45:21;;;;;;;1.87;1.77;;;14.80;99.90;;;;;;4977770;28;20438;-63
2022/10/02 14:48:03;;;;;;;1.53;1.30;;;14.90;99.90;;;;;;4977558;28;20922;-63
2022/10/02 14:50:53;;;;;;;1.73;1.23;;;14.80;99.90;;;;;;4977861;28;20542;-63
2022/10/02 14:54:01;;;;;;;2.13;2.03;;;14.80;99.90;;;;;;4976109;28;20873;-64
2022/10/02 14:57:07;;;;;;;1.33;1.20;;;14.70;99.90;;;;;;4937147;29;20479;-63
2022/10/02 14:59:57;;;;;;;2.57;2.47;;;14.80;99.90;;;;;;4903898;29;20448;-63
2022/10/02 15:02:47;;;;;;;1.17;1.17;;;14.70;99.90;;;;;;4974154;28;20529;-64
2022/10/02 15:05:33;;;;;;;1.60;1.50;;;14.70;99.90;;;;;;4977601;28;20443;-63
2022/10/02 15:08:02;;;;;;;1.40;1.40;;;14.60;99.90;;;;;;4977084;28;20462;-63
2022/10/02 15:10:35;;;;;;;1.40;1.40;;;14.60;99.90;;;;;;4976968;28;20968;-63
2022/10/02 15:13:05;;;;;;;1.67;1.60;;;14.60;99.90;;;;;;4977436;28;20438;-64
2022/10/02 15:15:37;;;;;;;1.93;1.83;;;14.50;99.90;;;;;;4977489;28;20443;-64
2022/10/02 15:18:24;;;;;;;1.93;1.83;;;14.60;99.90;;;;;;4977367;28;20442;-63
2022/10/02 15:20:58;;;;;;;2.20;2.10;;;14.60;99.90;;;;;;4977213;28;20569;-64
2022/10/02 15:23:41;;;;;;;2.33;2.13;;;14.50;99.90;;;;;;4979416;28;20445;-63
2022/10/02 15:26:27;;;;;;;2.20;2.00;;;14.60;99.90;;;;;;4980760;28;20521;-63
2022/10/02 15:29:09;;;;;;;1.97;1.77;;;14.50;99.90;;;;;;4982987;28;20463;-64
2022/10/02 15:31:43;;;;;;;3.17;2.40;;;14.50;99.90;;;;;;4981324;28;20985;-63
2022/10/02 15:34:24;;;;;;;5.30;4.90;;;14.50;99.90;;;;;;4981844;28;20437;-63
2022/10/02 15:37:05;;;;;;;3.57;3.33;;;14.50;99.90;;;;;;4982886;28;20490;-63
2022/10/02 15:40:02;;;;;;;10.33;9.43;;;14.50;99.90;;;;;;4981400;28;20435;-63
2022/10/02 15:42:46;;;;;;;4.87;4.57;;;14.50;99.90;;;;;;4981848;28;20481;-63
2022/10/02 15:45:21;;;;;;;3.97;3.50;;;14.60;99.90;;;;;;4980555;28;20439;-63
2022/10/02 15:48:13;;;;;;;12.53;11.50;;;14.60;99.90;;;;;;4979786;28;20462;-63
2022/10/02 15:50:48;;;;;;;3.27;3.13;;;14.60;99.90;;;;;;4980080;28;20474;-63
2022/10/02 15:53:32;;;;;;;4.73;4.40;;;14.60;99.90;;;;;;4979487;28;20439;-63
2022/10/02 15:56:15;;;;;;;5.07;4.67;;;14.60;99.90;;;;;;4976917;28;20427;-64
2022/10/02 15:59:08;;;;;;;3.47;3.17;;;14.60;99.90;;;;;;4976381;28;20929;-64
2022/10/02 16:01:45;;;;;;;2.50;2.30;;;14.60;99.90;;;;;;4976148;28;20486;-63
2022/10/02 16:04:23;;;;;;;3.17;2.97;;;14.50;99.90;;;;;;4976416;28;20493;-63
2022/10/02 16:07:24;;;;;;;5.40;5.00;;;14.50;99.90;;;;;;4976235;28;20450;-63
2022/10/02 16:10:02;;;;;;;7.20;6.70;;;14.50;99.90;;;;;;4978099;28;20474;-63
2022/10/02 16:12:48;;;;;;;5.40;5.00;;;14.50;99.90;;;;;;4978324;28;20486;-63
2022/10/02 16:15:22;;;;;;;2.77;2.60;;;14.50;99.90;;;;;;4978496;28;20443;-63
2022/10/02 16:18:12;;;;;;;3.50;3.30;;;14.50;99.90;;;;;;4978607;28;20442;-63
2022/10/02 16:21:01;;;;;;;5.10;4.70;;;14.50;99.90;;;;;;4978201;28;20474;-63
2022/10/02 16:23:56;;;;;;;5.57;5.20;;;14.50;99.90;;;;;;4977783;28;20439;-63
2022/10/02 16:26:35;;;;;;;4.60;4.30;;;14.40;99.90;;;;;;4974484;28;20466;-63
2022/10/02 16:29:20;;;;;;;5.43;5.13;;;14.50;99.90;;;;;;4979499;28;20521;-63
2022/10/02 16:32:03;;;;;;;3.53;3.23;;;14.50;99.90;;;;;;4976843;28;20474;-63
2022/10/02 16:34:47;;;;;;;3.50;2.73;;;14.50;99.90;;;;;;4975993;28;20449;-63
2022/10/02 16:37:22;;;;;;;2.90;2.70;;;14.50;99.90;;;;;;4976036;28;20840;-63
2022/10/02 16:39:59;;;;;;;2.60;2.40;;;14.50;99.90;;;;;;4975568;28;20438;-63
2022/10/02 16:42:43;;;;;;;3.97;3.67;;;14.50;99.90;;;;;;4975504;28;20478;-63
2022/10/02 16:45:34;;;;;;;6.40;3.83;;;14.50;99.90;;;;;;4975408;28;20565;-63
2022/10/02 16:48:07;;;;;;;3.67;3.47;;;14.50;99.90;;;;;;4975491;28;20517;-63
2022/10/02 16:50:48;;;;;;;2.87;2.60;;;14.50;99.90;;;;;;4975411;28;20496;-63
2022/10/02 16:53:25;;;;;;;2.70;2.50;;;14.40;99.90;;;;;;4975198;28;20841;-63
2022/10/02 16:56:06;;;;;;;2.57;2.37;;;14.40;99.90;;;;;;4975383;28;20442;-63
2022/10/02 16:58:43;;;;;;;3.30;2.70;;;14.30;99.90;;;;;;4974469;28;20910;-63
2022/10/02 17:01:22;;;;;;;3.10;3.00;;;14.30;99.90;;;;;;4974931;28;21051;-63
2022/10/02 17:04:17;;;;;;;3.83;3.53;;;14.20;99.90;;;;;;4975287;28;20447;-63
2022/10/02 17:06:49;;;;;;;5.47;4.93;;;14.20;99.90;;;;;;4975018;28;20957;-63
2022/10/02 17:09:21;;;;;;;5.27;4.77;;;14.20;99.90;;;;;;4975252;28;20466;-63
2022/10/02 17:11:53;;;;;;;5.27;4.83;;;14.10;99.90;;;;;;4974866;28;21027;-63
2022/10/02 17:14:25;;;;;;;5.53;5.13;;;14.10;99.90;;;;;;4975233;28;20442;-63
2022/10/02 17:16:56;;;;;;;5.20;4.70;;;14.10;99.90;;;;;;4975257;28;20494;-63
2022/10/02 17:19:27;;;;;;;4.90;4.40;;;14.10;99.90;;;;;;4975174;28;20470;-64
2022/10/02 17:21:59;;;;;;;4.63;4.33;;;14.10;99.90;;;;;;4975083;28;20490;-64
2022/10/02 17:24:36;;;;;;;4.67;4.17;;;14.10;99.90;;;;;;4975075;28;20476;-63
2022/10/02 17:27:13;;;;;;;4.13;3.80;;;14.10;99.90;;;;;;4974933;28;20445;-63
2022/10/02 17:29:53;;;;;;;3.90;3.67;;;14.10;99.90;;;;;;4975098;28;20518;-63
2022/10/02 17:32:46;;;;;;;3.90;3.40;;;14.10;99.90;;;;;;4974496;28;20474;-63
2022/10/02 17:35:16;;;;;;;3.47;3.17;;;14.00;99.90;;;;;;4975149;28;20872;-63
2022/10/02 17:38:18;;;;;;;3.90;3.60;;;14.00;99.90;;;;;;4974622;28;21012;-63
2022/10/02 17:40:53;;;;;;;3.87;3.67;;;14.00;99.90;;;;;;4974984;28;20474;-64
2022/10/02 17:43:29;;;;;;;4.27;4.00;;;14.00;99.90;;;;;;4974788;28;20981;-65
2022/10/02 17:46:05;;;;;;;4.17;3.77;;;14.00;99.90;;;;;;4974983;28;20438;-65
2022/10/02 17:48:46;;;;;;;4.80;4.40;;;14.00;99.90;;;;;;4975026;28;20470;-64
2022/10/02 17:51:33;;;;;;;4.73;4.33;;;14.00;99.90;;;;;;4974898;28;20479;-65
2022/10/02 17:57:16;;;;;;;5.60;5.10;;;13.90;99.90;;;;;;4975030;28;20414;-64
2022/10/02 18:00:13;;;;;;;5.40;5.10;;;13.90;99.90;;;;;;4974870;28;20847;-64
2022/10/02 18:03:04;;;;;;;6.50;5.90;;;14.00;99.90;;;;;;4951963;28;20505;-64
2022/10/02 18:05:43;;;;;;;4.90;4.43;;;14.00;99.90;;;;;;4974463;28;20808;-64
2022/10/02 18:08:23;;;;;;;4.70;4.40;;;14.00;99.90;;;;;;4974591;28;21032;-65
2022/10/02 18:11:02;;;;;;;6.10;5.70;;;14.00;99.90;;;;;;4978176;28;20533;-63
2022/10/02 18:13:52;;;;;;;9.20;8.30;;;14.00;99.90;;;;;;4978705;28;20442;-64
2022/10/02 18:16:30;;;;;;;6.93;6.33;;;14.00;99.90;;;;;;4976607;28;20463;-63
2022/10/02 18:19:30;;;;;;;6.50;5.90;;;14.00;99.90;;;;;;4979032;28;20434;-63
2022/10/02 18:22:11;;;;;;;6.13;5.63;;;14.00;99.90;;;;;;4968538;28;20482;-64
2022/10/02 18:24:57;;;;;;;6.57;6.07;;;14.00;99.90;;;;;;4978722;28;20439;-63